Greenfield, Wisconsin
Current Conditions -  °F | °C
As of 10:52 AM on Friday 31 Oct 2014 (Local Time) from KMKE Reporting Station
Overcast Overcast  
Wind Chill: 24°   Ceiling: 3600
Heat Index: 37°   Visibility: 9mi
Dew Point: 24°   Wind: 35mph
Humidity: 59%   Direction: 350°N
Pressure: 30.18"   Gusts: 46mph
Location:  42.97°N, 88°W
Report Text: KMKE 311552Z 35030G40KT 9SM OVC036 03/M04 A3018 RMK AO2 PK WND 34040/1544 SNE48 SLP223 P0000 T00281044
Loading
Personal Weather Stations






























Interactive Weather Map
Tropical Storm Tracking
New forecast layout! Learn more

10-Day Weather Forecast

Advertisements
Track Severe Weather on mobile